Brussel, België

6:15 AM CEST op 30 mei 2015 (GMT +0200)
Berg | | Change Station
CLOSE
Current Station
Persoonlijk weerstation
Location: Kampenhout, VLAAMS BRABANT
Geometrische hoogte: 54 ft
Nabije weerstations

Hoogte 54 ft 50.93 °N, 4.53 °E | Updated 3 minutes ago

Clear
Helder
46.6 °F
Voelt als 47 °F
N
3.0
Wind Variabel Wind van ZW
Gusts 8.0 mijl/u

Vandaag
Hoog -- | Laag -- °F
--% Kans op neerslag
Gisteren
Hoog -- | Laag -- °F
Precip. -- inches
5:35 AM 9:44 PM
Wassende maan, 88% visible
Druk 29.89 inches
Zicht 5.6 mijlen
Wolken
Gevoelstemperatuur 47 °F
Dauwpunt 44 °F
Vochtigheid 92%
Neerslag 0.00 inches
Dikte sneeuw Niet beschikbaar.
UV 0.0 van de 12
Pollen Niet beschikbaar.
Luchtkwaliteit Niet beschikbaar.
Flu Activity Niet beschikbaar.
METAR EBBE 300355Z AUTO 24007KT 9000 NCD 07/06 Q1012 BLU

More Conditions Fewer Conditions

Druk 29.89 inches
Zicht 5.6 mijlen
Wolken
Gevoelstemperatuur 47 °F
Dauwpunt 44 °F
Vochtigheid 92%
Neerslag 0.00 inches
Dikte sneeuw Niet beschikbaar.
UV 0.0 van de 12
Pollen Niet beschikbaar.
Luchtkwaliteit Niet beschikbaar.
Flu Activity Niet beschikbaar.
METAR EBBE 300355Z AUTO 24007KT 9000 NCD 07/06 Q1012 BLU

More Conditions Fewer Conditions

10-Day Weather Forecast

Almanac

Astronomie

May. 30, 2015 Opkomst Ondergang
Werkelijke tijd
Burgerlijke schemering
Nautische schemering
Astronomische schemering
Maan
Golflengte van het zichtbare licht
Daglengte
Tomorrow will be .
, % of the Moon is Illuminated

Extremen vandaag

Country Highs Country Lows

Community

WunderPhotos

Upload Photos

1,825,446 foto’s ge-upload!

WunderBlogs® & News

Nearby

Luchtkwaliteit

  Luchtkwaliteit LK-index Verontreinigende stof
Not available.

Dikte sneeuw

Station Depth Geometrische hoogte

Aardbevingen

Stad Distance Mag. Time & Date
Minimum magnitude displayed is 2.5.

Watertemperatuur langs de kust

Plaats Temperatuur

Stations

Nabije weerstations

Locatie station Temp. Gevoelstemperatuur Dauwpunt Vochtigheid Wind Precip. Hoogte Geactualiseerd Type